sensor_id;sensor_type;location;lat;lon;timestamp;temperature;humidity
53776;DHT22;44276;49.534;6.378;2023-03-13T00:01:55;10.90;99.90
53776;DHT22;44276;49.534;6.378;2023-03-13T00:04:23;10.90;99.90
53776;DHT22;44276;49.534;6.378;2023-03-13T00:06:51;10.90;99.90
53776;DHT22;44276;49.534;6.378;2023-03-13T00:09:20;11.00;99.90
53776;DHT22;44276;49.534;6.378;2023-03-13T00:11:49;11.00;99.90
53776;DHT22;44276;49.534;6.378;2023-03-13T00:14:17;10.90;99.90
53776;DHT22;44276;49.534;6.378;2023-03-13T00:16:46;10.70;99.90
53776;DHT22;44276;49.534;6.378;2023-03-13T00:19:15;10.60;99.90
53776;DHT22;44276;49.534;6.378;2023-03-13T00:21:43;10.50;99.90
53776;DHT22;44276;49.534;6.378;2023-03-13T00:24:11;10.30;99.90
53776;DHT22;44276;49.534;6.378;2023-03-13T00:26:39;10.30;99.90
53776;DHT22;44276;49.534;6.378;2023-03-13T00:29:07;10.20;99.90
53776;DHT22;44276;49.534;6.378;2023-03-13T00:31:36;10.10;99.90
53776;DHT22;44276;49.534;6.378;2023-03-13T00:34:05;10.00;99.90
53776;DHT22;44276;49.534;6.378;2023-03-13T00:36:34;10.00;99.90
53776;DHT22;44276;49.534;6.378;2023-03-13T00:39:04;9.90;99.90
53776;DHT22;44276;49.534;6.378;2023-03-13T00:41:33;9.90;99.90
53776;DHT22;44276;49.534;6.378;2023-03-13T00:44:03;9.90;99.90
53776;DHT22;44276;49.534;6.378;2023-03-13T00:46:31;9.90;99.90
53776;DHT22;44276;49.534;6.378;2023-03-13T00:49:00;9.90;99.90
53776;DHT22;44276;49.534;6.378;2023-03-13T00:51:29;9.80;99.90
53776;DHT22;44276;49.534;6.378;2023-03-13T00:53:58;9.70;99.90
53776;DHT22;44276;49.534;6.378;2023-03-13T00:56:27;9.70;99.90
53776;DHT22;44276;49.534;6.378;2023-03-13T00:58:56;9.70;99.90
53776;DHT22;44276;49.534;6.378;2023-03-13T01:01:28;9.60;99.90
53776;DHT22;44276;49.534;6.378;2023-03-13T01:03:59;9.60;99.90
53776;DHT22;44276;49.534;6.378;2023-03-13T01:06:32;9.60;99.90
53776;DHT22;44276;49.534;6.378;2023-03-13T01:09:02;9.60;99.90
53776;DHT22;44276;49.534;6.378;2023-03-13T01:11:34;9.50;99.90
53776;DHT22;44276;49.534;6.378;2023-03-13T01:14:06;9.50;99.90
53776;DHT22;44276;49.534;6.378;2023-03-13T01:16:37;9.50;99.90
53776;DHT22;44276;49.534;6.378;2023-03-13T01:19:08;9.40;99.90
53776;DHT22;44276;49.534;6.378;2023-03-13T01:21:42;9.40;99.90
53776;DHT22;44276;49.534;6.378;2023-03-13T01:24:11;9.40;99.90
53776;DHT22;44276;49.534;6.378;2023-03-13T01:26:40;9.40;99.90
53776;DHT22;44276;49.534;6.378;2023-03-13T01:29:08;9.40;99.90
53776;DHT22;44276;49.534;6.378;2023-03-13T01:31:36;9.40;99.90
53776;DHT22;44276;49.534;6.378;2023-03-13T01:34:05;9.40;99.90
53776;DHT22;44276;49.534;6.378;2023-03-13T01:36:35;9.40;99.90
53776;DHT22;44276;49.534;6.378;2023-03-13T01:39:05;9.40;99.90
53776;DHT22;44276;49.534;6.378;2023-03-13T01:41:33;9.40;99.90
53776;DHT22;44276;49.534;6.378;2023-03-13T01:44:02;9.50;99.90
53776;DHT22;44276;49.534;6.378;2023-03-13T01:46:30;9.40;99.90
53776;DHT22;44276;49.534;6.378;2023-03-13T01:49:02;9.50;99.90
53776;DHT22;44276;49.534;6.378;2023-03-13T01:51:36;9.50;99.90
53776;DHT22;44276;49.534;6.378;2023-03-13T01:54:10;9.50;99.90
53776;DHT22;44276;49.534;6.378;2023-03-13T01:56:46;9.60;99.90
53776;DHT22;44276;49.534;6.378;2023-03-13T01:59:18;9.60;99.90
53776;DHT22;44276;49.534;6.378;2023-03-13T02:01:51;9.70;99.90
53776;DHT22;44276;49.534;6.378;2023-03-13T02:04:24;9.70;99.90
53776;DHT22;44276;49.534;6.378;2023-03-13T02:06:56;9.80;99.90
53776;DHT22;44276;49.534;6.378;2023-03-13T02:09:30;9.80;99.90
53776;DHT22;44276;49.534;6.378;2023-03-13T02:12:05;9.80;99.90
53776;DHT22;44276;49.534;6.378;2023-03-13T02:14:37;9.80;99.90
53776;DHT22;44276;49.534;6.378;2023-03-13T02:17:11;9.90;99.90
53776;DHT22;44276;49.534;6.378;2023-03-13T02:19:42;9.90;99.90
53776;DHT22;44276;49.534;6.378;2023-03-13T02:22:19;9.90;99.90
53776;DHT22;44276;49.534;6.378;2023-03-13T02:24:55;10.00;99.90
53776;DHT22;44276;49.534;6.378;2023-03-13T02:27:30;10.00;99.90
53776;DHT22;44276;49.534;6.378;2023-03-13T02:29:58;10.10;99.90
53776;DHT22;44276;49.534;6.378;2023-03-13T02:32:28;10.10;99.90
53776;DHT22;44276;49.534;6.378;2023-03-13T02:35:03;10.20;99.90
53776;DHT22;44276;49.534;6.378;2023-03-13T02:37:36;10.20;99.90
53776;DHT22;44276;49.534;6.378;2023-03-13T02:40:10;10.20;99.90
53776;DHT22;44276;49.534;6.378;2023-03-13T02:42:44;10.20;99.90
53776;DHT22;44276;49.534;6.378;2023-03-13T02:45:14;10.30;99.90
53776;DHT22;44276;49.534;6.378;2023-03-13T02:47:44;10.30;99.90
53776;DHT22;44276;49.534;6.378;2023-03-13T02:50:13;10.30;99.90
53776;DHT22;44276;49.534;6.378;2023-03-13T02:52:45;10.40;99.90
53776;DHT22;44276;49.534;6.378;2023-03-13T02:55:20;10.40;99.90
53776;DHT22;44276;49.534;6.378;2023-03-13T02:57:52;10.40;99.90
53776;DHT22;44276;49.534;6.378;2023-03-13T03:00:20;10.40;99.90
53776;DHT22;44276;49.534;6.378;2023-03-13T03:02:52;10.40;99.90
53776;DHT22;44276;49.534;6.378;2023-03-13T03:05:22;10.50;99.90
53776;DHT22;44276;49.534;6.378;2023-03-13T03:07:50;10.50;99.90
53776;DHT22;44276;49.534;6.378;2023-03-13T03:10:19;10.60;99.90
53776;DHT22;44276;49.534;6.378;2023-03-13T03:12:47;10.60;99.90
53776;DHT22;44276;49.534;6.378;2023-03-13T03:15:16;10.60;99.90
53776;DHT22;44276;49.534;6.378;2023-03-13T03:17:45;10.60;99.90
53776;DHT22;44276;49.534;6.378;2023-03-13T03:20:13;10.60;99.90
53776;DHT22;44276;49.534;6.378;2023-03-13T03:22:41;10.70;99.90
53776;DHT22;44276;49.534;6.378;2023-03-13T03:25:09;10.70;99.90
53776;DHT22;44276;49.534;6.378;2023-03-13T03:27:37;10.70;99.90
53776;DHT22;44276;49.534;6.378;2023-03-13T03:30:06;10.70;99.90
53776;DHT22;44276;49.534;6.378;2023-03-13T03:32:36;10.70;99.90
53776;DHT22;44276;49.534;6.378;2023-03-13T03:35:05;10.80;99.90
53776;DHT22;44276;49.534;6.378;2023-03-13T03:37:34;10.80;99.90
53776;DHT22;44276;49.534;6.378;2023-03-13T03:40:03;10.90;99.90
53776;DHT22;44276;49.534;6.378;2023-03-13T03:42:32;10.90;99.90
53776;DHT22;44276;49.534;6.378;2023-03-13T03:45:00;11.00;99.90
53776;DHT22;44276;49.534;6.378;2023-03-13T03:47:29;11.00;99.90
53776;DHT22;44276;49.534;6.378;2023-03-13T03:49:59;11.10;99.90
53776;DHT22;44276;49.534;6.378;2023-03-13T03:52:29;11.20;99.90
53776;DHT22;44276;49.534;6.378;2023-03-13T03:54:57;11.20;99.90
53776;DHT22;44276;49.534;6.378;2023-03-13T03:57:25;11.20;99.90
53776;DHT22;44276;49.534;6.378;2023-03-13T03:59:53;11.30;99.90
53776;DHT22;44276;49.534;6.378;2023-03-13T04:02:22;11.40;99.90
53776;DHT22;44276;49.534;6.378;2023-03-13T04:04:50;11.50;99.90
53776;DHT22;44276;49.534;6.378;2023-03-13T04:07:20;11.50;99.90
53776;DHT22;44276;49.534;6.378;2023-03-13T04:09:48;11.50;99.90
53776;DHT22;44276;49.534;6.378;2023-03-13T04:12:16;11.60;99.90
53776;DHT22;44276;49.534;6.378;2023-03-13T04:14:44;11.50;99.90
53776;DHT22;44276;49.534;6.378;2023-03-13T04:17:12;11.60;99.90
53776;DHT22;44276;49.534;6.378;2023-03-13T04:19:40;11.50;99.90
53776;DHT22;44276;49.534;6.378;2023-03-13T04:22:08;11.50;99.90
53776;DHT22;44276;49.534;6.378;2023-03-13T04:24:37;11.50;99.90
53776;DHT22;44276;49.534;6.378;2023-03-13T04:27:06;11.50;99.90
53776;DHT22;44276;49.534;6.378;2023-03-13T04:29:34;11.50;99.90
53776;DHT22;44276;49.534;6.378;2023-03-13T04:32:02;11.50;99.90
53776;DHT22;44276;49.534;6.378;2023-03-13T04:34:31;11.50;99.90
53776;DHT22;44276;49.534;6.378;2023-03-13T04:36:59;11.50;99.90
53776;DHT22;44276;49.534;6.378;2023-03-13T04:39:27;11.50;99.90
53776;DHT22;44276;49.534;6.378;2023-03-13T04:42:00;11.50;99.90
53776;DHT22;44276;49.534;6.378;2023-03-13T04:44:28;11.60;99.90
53776;DHT22;44276;49.534;6.378;2023-03-13T04:46:56;11.60;99.90
53776;DHT22;44276;49.534;6.378;2023-03-13T04:49:24;11.60;99.90
53776;DHT22;44276;49.534;6.378;2023-03-13T04:51:52;11.70;99.90
53776;DHT22;44276;49.534;6.378;2023-03-13T04:54:20;11.80;99.90
53776;DHT22;44276;49.534;6.378;2023-03-13T04:56:48;11.90;99.90
53776;DHT22;44276;49.534;6.378;2023-03-13T04:59:18;11.90;99.90
53776;DHT22;44276;49.534;6.378;2023-03-13T05:01:46;12.00;99.90
53776;DHT22;44276;49.534;6.378;2023-03-13T05:04:14;12.00;99.90
53776;DHT22;44276;49.534;6.378;2023-03-13T05:06:42;12.00;99.90
53776;DHT22;44276;49.534;6.378;2023-03-13T05:09:10;12.00;99.90
53776;DHT22;44276;49.534;6.378;2023-03-13T05:11:39;12.00;99.90
53776;DHT22;44276;49.534;6.378;2023-03-13T05:14:07;12.00;99.90
53776;DHT22;44276;49.534;6.378;2023-03-13T05:16:38;12.00;99.90
53776;DHT22;44276;49.534;6.378;2023-03-13T05:19:06;12.00;99.90
53776;DHT22;44276;49.534;6.378;2023-03-13T05:21:34;12.00;99.90
53776;DHT22;44276;49.534;6.378;2023-03-13T05:24:02;12.10;99.90
53776;DHT22;44276;49.534;6.378;2023-03-13T05:26:31;12.10;99.90
53776;DHT22;44276;49.534;6.378;2023-03-13T05:28:59;12.20;99.90
53776;DHT22;44276;49.534;6.378;2023-03-13T05:31:27;12.20;99.90
53776;DHT22;44276;49.534;6.378;2023-03-13T05:33:57;12.20;99.90
53776;DHT22;44276;49.534;6.378;2023-03-13T05:36:25;12.20;99.90
53776;DHT22;44276;49.534;6.378;2023-03-13T05:38:53;12.20;99.90
53776;DHT22;44276;49.534;6.378;2023-03-13T05:41:21;12.20;99.90
53776;DHT22;44276;49.534;6.378;2023-03-13T05:43:49;12.30;99.90
53776;DHT22;44276;49.534;6.378;2023-03-13T05:46:17;12.30;99.90
53776;DHT22;44276;49.534;6.378;2023-03-13T05:48:46;12.30;99.90
53776;DHT22;44276;49.534;6.378;2023-03-13T05:51:15;12.30;99.90
53776;DHT22;44276;49.534;6.378;2023-03-13T05:53:43;12.30;99.90
53776;DHT22;44276;49.534;6.378;2023-03-13T05:56:11;12.50;99.90
53776;DHT22;44276;49.534;6.378;2023-03-13T05:58:39;12.50;99.90
53776;DHT22;44276;49.534;6.378;2023-03-13T06:01:08;12.40;99.90
53776;DHT22;44276;49.534;6.378;2023-03-13T06:03:38;12.40;99.90
53776;DHT22;44276;49.534;6.378;2023-03-13T06:06:06;12.60;99.90
53776;DHT22;44276;49.534;6.378;2023-03-13T06:08:36;12.60;99.90
53776;DHT22;44276;49.534;6.378;2023-03-13T06:11:04;12.60;99.90
53776;DHT22;44276;49.534;6.378;2023-03-13T06:13:33;12.50;99.90
53776;DHT22;44276;49.534;6.378;2023-03-13T06:16:01;12.60;99.90
53776;DHT22;44276;49.534;6.378;2023-03-13T06:18:30;12.60;99.90
53776;DHT22;44276;49.534;6.378;2023-03-13T06:21:00;12.60;99.90
53776;DHT22;44276;49.534;6.378;2023-03-13T06:23:29;12.60;99.90
53776;DHT22;44276;49.534;6.378;2023-03-13T06:25:59;12.70;99.90
53776;DHT22;44276;49.534;6.378;2023-03-13T06:28:28;12.70;99.90
53776;DHT22;44276;49.534;6.378;2023-03-13T06:31:00;12.70;99.90
53776;DHT22;44276;49.534;6.378;2023-03-13T06:33:29;12.70;99.90
53776;DHT22;44276;49.534;6.378;2023-03-13T06:35:59;12.60;99.90
53776;DHT22;44276;49.534;6.378;2023-03-13T06:38:29;12.60;99.90
53776;DHT22;44276;49.534;6.378;2023-03-13T06:40:59;12.90;99.90
53776;DHT22;44276;49.534;6.378;2023-03-13T06:43:28;12.90;99.90
53776;DHT22;44276;49.534;6.378;2023-03-13T06:46:01;12.90;99.90
53776;DHT22;44276;49.534;6.378;2023-03-13T06:48:30;12.90;99.90
53776;DHT22;44276;49.534;6.378;2023-03-13T06:51:01;12.90;99.90
53776;DHT22;44276;49.534;6.378;2023-03-13T06:53:29;12.80;99.90
53776;DHT22;44276;49.534;6.378;2023-03-13T06:56:01;12.80;99.90
53776;DHT22;44276;49.534;6.378;2023-03-13T06:58:29;12.80;99.90
53776;DHT22;44276;49.534;6.378;2023-03-13T07:00:58;12.80;99.90
53776;DHT22;44276;49.534;6.378;2023-03-13T07:03:27;12.80;99.90
53776;DHT22;44276;49.534;6.378;2023-03-13T07:05:56;12.70;99.90
53776;DHT22;44276;49.534;6.378;2023-03-13T07:08:24;12.70;99.90
53776;DHT22;44276;49.534;6.378;2023-03-13T07:10:57;12.70;99.90
53776;DHT22;44276;49.534;6.378;2023-03-13T07:13:28;12.70;99.90
53776;DHT22;44276;49.534;6.378;2023-03-13T07:15:58;12.80;99.90
53776;DHT22;44276;49.534;6.378;2023-03-13T07:18:27;12.80;99.90
53776;DHT22;44276;49.534;6.378;2023-03-13T07:20:56;12.90;99.90
53776;DHT22;44276;49.534;6.378;2023-03-13T07:23:28;13.00;99.90
53776;DHT22;44276;49.534;6.378;2023-03-13T07:25:57;13.10;99.90
53776;DHT22;44276;49.534;6.378;2023-03-13T07:28:29;13.20;99.90
53776;DHT22;44276;49.534;6.378;2023-03-13T07:31:04;13.40;99.90
53776;DHT22;44276;49.534;6.378;2023-03-13T07:33:34;13.50;99.90
53776;DHT22;44276;49.534;6.378;2023-03-13T07:36:03;13.60;99.90
53776;DHT22;44276;49.534;6.378;2023-03-13T07:38:31;13.60;99.90
53776;DHT22;44276;49.534;6.378;2023-03-13T07:41:00;13.50;99.90
53776;DHT22;44276;49.534;6.378;2023-03-13T07:43:30;13.50;99.90
53776;DHT22;44276;49.534;6.378;2023-03-13T07:46:00;13.50;99.90
53776;DHT22;44276;49.534;6.378;2023-03-13T07:48:31;13.50;99.90
53776;DHT22;44276;49.534;6.378;2023-03-13T07:51:01;13.40;99.90
53776;DHT22;44276;49.534;6.378;2023-03-13T07:53:31;13.40;99.90
53776;DHT22;44276;49.534;6.378;2023-03-13T07:56:01;13.40;99.90
53776;DHT22;44276;49.534;6.378;2023-03-13T07:58:34;13.30;99.90
53776;DHT22;44276;49.534;6.378;2023-03-13T08:01:07;13.10;99.90
53776;DHT22;44276;49.534;6.378;2023-03-13T08:03:36;13.00;99.90
53776;DHT22;44276;49.534;6.378;2023-03-13T08:06:07;12.90;99.90
53776;DHT22;44276;49.534;6.378;2023-03-13T08:08:38;12.90;99.90
53776;DHT22;44276;49.534;6.378;2023-03-13T08:11:08;12.80;99.90
53776;DHT22;44276;49.534;6.378;2023-03-13T08:13:40;12.70;99.90
53776;DHT22;44276;49.534;6.378;2023-03-13T08:16:11;12.80;99.90
53776;DHT22;44276;49.534;6.378;2023-03-13T08:18:42;12.80;99.90
53776;DHT22;44276;49.534;6.378;2023-03-13T08:21:13;12.80;99.90
53776;DHT22;44276;49.534;6.378;2023-03-13T08:23:42;12.80;99.90
53776;DHT22;44276;49.534;6.378;2023-03-13T08:26:13;12.80;99.90
53776;DHT22;44276;49.534;6.378;2023-03-13T08:28:46;12.80;99.90
53776;DHT22;44276;49.534;6.378;2023-03-13T08:31:20;13.00;99.90
53776;DHT22;44276;49.534;6.378;2023-03-13T08:33:50;13.00;99.90
53776;DHT22;44276;49.534;6.378;2023-03-13T08:36:20;13.00;99.90
53776;DHT22;44276;49.534;6.378;2023-03-13T08:38:52;13.20;99.90
53776;DHT22;44276;49.534;6.378;2023-03-13T08:41:22;13.30;99.90
53776;DHT22;44276;49.534;6.378;2023-03-13T08:43:53;13.60;99.90
53776;DHT22;44276;49.534;6.378;2023-03-13T08:46:23;13.70;99.90
53776;DHT22;44276;49.534;6.378;2023-03-13T08:48:54;13.80;99.90
53776;DHT22;44276;49.534;6.378;2023-03-13T08:51:24;13.80;99.90
53776;DHT22;44276;49.534;6.378;2023-03-13T08:53:54;13.90;99.90
53776;DHT22;44276;49.534;6.378;2023-03-13T08:56:24;13.90;99.90
53776;DHT22;44276;49.534;6.378;2023-03-13T08:58:59;14.00;99.90
53776;DHT22;44276;49.534;6.378;2023-03-13T09:01:34;14.10;99.90
53776;DHT22;44276;49.534;6.378;2023-03-13T09:04:06;14.20;99.90
53776;DHT22;44276;49.534;6.378;2023-03-13T09:06:39;14.30;99.90
53776;DHT22;44276;49.534;6.378;2023-03-13T09:09:08;14.40;99.90
53776;DHT22;44276;49.534;6.378;2023-03-13T09:11:40;14.50;99.90
53776;DHT22;44276;49.534;6.378;2023-03-13T09:14:46;14.50;99.90
53776;DHT22;44276;49.534;6.378;2023-03-13T09:17:31;14.50;99.90
53776;DHT22;44276;49.534;6.378;2023-03-13T09:20:08;14.60;99.90
53776;DHT22;44276;49.534;6.378;2023-03-13T09:22:50;14.60;99.90
53776;DHT22;44276;49.534;6.378;2023-03-13T09:28:38;14.70;99.90
53776;DHT22;44276;49.534;6.378;2023-03-13T09:31:16;14.70;99.90
53776;DHT22;44276;49.534;6.378;2023-03-13T09:34:04;14.80;99.90
53776;DHT22;44276;49.534;6.378;2023-03-13T09:36:37;14.80;99.90
53776;DHT22;44276;49.534;6.378;2023-03-13T09:39:24;14.80;99.90
53776;DHT22;44276;49.534;6.378;2023-03-13T09:42:08;14.90;99.90
53776;DHT22;44276;49.534;6.378;2023-03-13T09:44:44;14.90;99.90
53776;DHT22;44276;49.534;6.378;2023-03-13T09:47:27;14.90;99.90
53776;DHT22;44276;49.534;6.378;2023-03-13T09:50:12;15.20;99.90
53776;DHT22;44276;49.534;6.378;2023-03-13T09:52:47;15.20;99.90
53776;DHT22;44276;49.534;6.378;2023-03-13T09:55:29;15.10;99.90
53776;DHT22;44276;49.534;6.378;2023-03-13T09:58:03;15.10;99.90
53776;DHT22;44276;49.534;6.378;2023-03-13T10:00:46;15.10;99.90
53776;DHT22;44276;49.534;6.378;2023-03-13T10:03:25;14.90;99.90
53776;DHT22;44276;49.534;6.378;2023-03-13T10:06:28;14.90;99.90
53776;DHT22;44276;49.534;6.378;2023-03-13T10:09:27;15.00;99.90
53776;DHT22;44276;49.534;6.378;2023-03-13T10:12:11;15.20;99.90
53776;DHT22;44276;49.534;6.378;2023-03-13T10:14:53;15.20;99.90
53776;DHT22;44276;49.534;6.378;2023-03-13T10:17:32;15.10;99.90
53776;DHT22;44276;49.534;6.378;2023-03-13T10:20:20;15.00;99.90
53776;DHT22;44276;49.534;6.378;2023-03-13T10:22:53;14.90;99.90
53776;DHT22;44276;49.534;6.378;2023-03-13T10:25:28;14.90;99.90
53776;DHT22;44276;49.534;6.378;2023-03-13T10:28:00;14.80;99.90
53776;DHT22;44276;49.534;6.378;2023-03-13T10:30:30;14.70;99.90
53776;DHT22;44276;49.534;6.378;2023-03-13T10:33:18;14.80;99.90
53776;DHT22;44276;49.534;6.378;2023-03-13T10:36:04;14.90;99.90
53776;DHT22;44276;49.534;6.378;2023-03-13T10:38:47;14.70;99.90
53776;DHT22;44276;49.534;6.378;2023-03-13T10:41:26;14.50;99.90
53776;DHT22;44276;49.534;6.378;2023-03-13T10:43:59;14.60;99.90
53776;DHT22;44276;49.534;6.378;2023-03-13T10:46:31;14.60;99.90
53776;DHT22;44276;49.534;6.378;2023-03-13T10:49:03;14.70;99.90
53776;DHT22;44276;49.534;6.378;2023-03-13T10:51:46;14.90;99.90
53776;DHT22;44276;49.534;6.378;2023-03-13T10:54:21;15.20;99.90
53776;DHT22;44276;49.534;6.378;2023-03-13T10:56:51;15.30;99.90
53776;DHT22;44276;49.534;6.378;2023-03-13T10:59:38;15.10;99.90
53776;DHT22;44276;49.534;6.378;2023-03-13T11:02:21;15.10;99.90
53776;DHT22;44276;49.534;6.378;2023-03-13T11:04:53;15.20;99.90
53776;DHT22;44276;49.534;6.378;2023-03-13T11:07:28;15.20;99.90
53776;DHT22;44276;49.534;6.378;2023-03-13T11:10:17;15.30;99.90
53776;DHT22;44276;49.534;6.378;2023-03-13T11:12:47;15.50;99.90
53776;DHT22;44276;49.534;6.378;2023-03-13T11:15:20;15.60;99.90
53776;DHT22;44276;49.534;6.378;2023-03-13T11:17:56;15.90;99.90
53776;DHT22;44276;49.534;6.378;2023-03-13T11:20:31;16.00;96.60
53776;DHT22;44276;49.534;6.378;2023-03-13T11:23:13;15.80;99.10
53776;DHT22;44276;49.534;6.378;2023-03-13T11:25:54;15.70;99.90
53776;DHT22;44276;49.534;6.378;2023-03-13T11:28:39;15.50;99.90
53776;DHT22;44276;49.534;6.378;2023-03-13T11:31:20;15.50;99.90
53776;DHT22;44276;49.534;6.378;2023-03-13T11:33:57;15.40;99.90
53776;DHT22;44276;49.534;6.378;2023-03-13T11:36:35;15.40;99.90
53776;DHT22;44276;49.534;6.378;2023-03-13T11:39:45;15.40;99.90
53776;DHT22;44276;49.534;6.378;2023-03-13T11:42:47;15.50;99.90
53776;DHT22;44276;49.534;6.378;2023-03-13T11:45:50;15.40;99.90
53776;DHT22;44276;49.534;6.378;2023-03-13T11:48:44;15.40;99.90
53776;DHT22;44276;49.534;6.378;2023-03-13T11:51:27;15.50;99.90
53776;DHT22;44276;49.534;6.378;2023-03-13T11:54:23;15.80;99.90
53776;DHT22;44276;49.534;6.378;2023-03-13T11:57:06;16.20;98.90
53776;DHT22;44276;49.534;6.378;2023-03-13T11:59:46;16.40;93.80
53776;DHT22;44276;49.534;6.378;2023-03-13T12:02:24;16.30;93.80
53776;DHT22;44276;49.534;6.378;2023-03-13T12:04:59;16.50;94.10
53776;DHT22;44276;49.534;6.378;2023-03-13T12:07:33;16.80;84.70
53776;DHT22;44276;49.534;6.378;2023-03-13T12:10:10;17.10;83.40
53776;DHT22;44276;49.534;6.378;2023-03-13T12:12:46;17.10;78.10
53776;DHT22;44276;49.534;6.378;2023-03-13T12:15:21;17.10;80.50
53776;DHT22;44276;49.534;6.378;2023-03-13T12:17:58;17.20;81.10
53776;DHT22;44276;49.534;6.378;2023-03-13T12:20:37;17.30;81.50
53776;DHT22;44276;49.534;6.378;2023-03-13T12:23:17;17.40;77.60
53776;DHT22;44276;49.534;6.378;2023-03-13T12:25:50;17.80;65.30
53776;DHT22;44276;49.534;6.378;2023-03-13T12:28:31;18.00;64.60
53776;DHT22;44276;49.534;6.378;2023-03-13T12:31:11;18.20;61.40
53776;DHT22;44276;49.534;6.378;2023-03-13T12:33:51;18.60;53.70
53776;DHT22;44276;49.534;6.378;2023-03-13T12:36:30;19.90;48.60
53776;DHT22;44276;49.534;6.378;2023-03-13T12:39:13;20.00;41.40
53776;DHT22;44276;49.534;6.378;2023-03-13T12:41:52;20.30;39.10
53776;DHT22;44276;49.534;6.378;2023-03-13T12:44:38;20.30;39.50
53776;DHT22;44276;49.534;6.378;2023-03-13T12:47:09;20.50;36.60
53776;DHT22;44276;49.534;6.378;2023-03-13T12:53:09;18.60;46.10
53776;DHT22;44276;49.534;6.378;2023-03-13T12:56:09;18.10;54.90
53776;DHT22;44276;49.534;6.378;2023-03-13T12:58:59;17.70;63.60
53776;DHT22;44276;49.534;6.378;2023-03-13T13:01:35;17.40;65.10
53776;DHT22;44276;49.534;6.378;2023-03-13T13:04:12;17.20;68.80
53776;DHT22;44276;49.534;6.378;2023-03-13T13:06:56;17.10;72.40
53776;DHT22;44276;49.534;6.378;2023-03-13T13:09:29;16.60;99.90
53776;DHT22;44276;49.534;6.378;2023-03-13T13:12:01;15.80;99.90
53776;DHT22;44276;49.534;6.378;2023-03-13T13:14:56;15.30;99.90
53776;DHT22;44276;49.534;6.378;2023-03-13T13:17:39;15.00;99.90
53776;DHT22;44276;49.534;6.378;2023-03-13T13:20:29;14.80;99.90
53776;DHT22;44276;49.534;6.378;2023-03-13T13:23:28;14.50;99.90
53776;DHT22;44276;49.534;6.378;2023-03-13T13:32:34;14.30;99.90
53776;DHT22;44276;49.534;6.378;2023-03-13T13:35:22;14.40;99.90
53776;DHT22;44276;49.534;6.378;2023-03-13T13:38:21;14.50;99.90
53776;DHT22;44276;49.534;6.378;2023-03-13T13:41:02;14.50;99.90
53776;DHT22;44276;49.534;6.378;2023-03-13T13:43:33;14.40;99.90
53776;DHT22;44276;49.534;6.378;2023-03-13T13:46:05;14.50;99.90
53776;DHT22;44276;49.534;6.378;2023-03-13T13:49:12;14.50;99.90
53776;DHT22;44276;49.534;6.378;2023-03-13T13:55:30;14.30;99.90
53776;DHT22;44276;49.534;6.378;2023-03-13T13:58:11;14.20;99.90
53776;DHT22;44276;49.534;6.378;2023-03-13T14:00:47;14.00;99.90
53776;DHT22;44276;49.534;6.378;2023-03-13T14:03:22;13.90;99.90
53776;DHT22;44276;49.534;6.378;2023-03-13T14:05:56;13.70;99.90
53776;DHT22;44276;49.534;6.378;2023-03-13T14:08:30;13.60;99.90
53776;DHT22;44276;49.534;6.378;2023-03-13T14:11:13;13.70;99.90
53776;DHT22;44276;49.534;6.378;2023-03-13T14:14:10;13.70;99.90
53776;DHT22;44276;49.534;6.378;2023-03-13T14:16:43;13.90;99.90
53776;DHT22;44276;49.534;6.378;2023-03-13T14:19:24;14.00;99.90
53776;DHT22;44276;49.534;6.378;2023-03-13T14:22:00;14.20;99.90
53776;DHT22;44276;49.534;6.378;2023-03-13T14:24:30;14.30;99.90
53776;DHT22;44276;49.534;6.378;2023-03-13T14:26:59;14.40;99.90
53776;DHT22;44276;49.534;6.378;2023-03-13T14:29:28;14.50;99.90
53776;DHT22;44276;49.534;6.378;2023-03-13T14:31:58;14.80;99.90
53776;DHT22;44276;49.534;6.378;2023-03-13T14:34:26;15.20;99.90
53776;DHT22;44276;49.534;6.378;2023-03-13T14:37:00;15.50;99.90
53776;DHT22;44276;49.534;6.378;2023-03-13T14:39:45;15.60;99.90
53776;DHT22;44276;49.534;6.378;2023-03-13T14:42:16;15.80;99.90
53776;DHT22;44276;49.534;6.378;2023-03-13T14:44:46;15.90;99.90
53776;DHT22;44276;49.534;6.378;2023-03-13T14:47:21;15.90;99.90
53776;DHT22;44276;49.534;6.378;2023-03-13T14:49:55;16.00;99.90
53776;DHT22;44276;49.534;6.378;2023-03-13T14:52:28;16.20;99.90
53776;DHT22;44276;49.534;6.378;2023-03-13T14:55:00;16.40;99.90
53776;DHT22;44276;49.534;6.378;2023-03-13T14:57:31;16.30;99.90
53776;DHT22;44276;49.534;6.378;2023-03-13T15:00:25;16.20;99.90
53776;DHT22;44276;49.534;6.378;2023-03-13T15:03:21;16.10;99.90
53776;DHT22;44276;49.534;6.378;2023-03-13T15:06:14;16.10;99.90
53776;DHT22;44276;49.534;6.378;2023-03-13T15:08:47;16.00;99.90
53776;DHT22;44276;49.534;6.378;2023-03-13T15:11:35;15.90;99.90
53776;DHT22;44276;49.534;6.378;2023-03-13T15:14:33;15.90;99.90
53776;DHT22;44276;49.534;6.378;2023-03-13T15:17:15;15.70;99.90
53776;DHT22;44276;49.534;6.378;2023-03-13T15:19:50;15.80;99.90
53776;DHT22;44276;49.534;6.378;2023-03-13T15:22:24;15.90;99.90
53776;DHT22;44276;49.534;6.378;2023-03-13T15:24:57;15.80;99.90
53776;DHT22;44276;49.534;6.378;2023-03-13T15:27:32;15.70;99.90
53776;DHT22;44276;49.534;6.378;2023-03-13T15:30:01;15.80;99.90
53776;DHT22;44276;49.534;6.378;2023-03-13T15:32:31;15.80;99.90
53776;DHT22;44276;49.534;6.378;2023-03-13T15:35:01;15.90;99.90
53776;DHT22;44276;49.534;6.378;2023-03-13T15:37:38;15.90;99.90
53776;DHT22;44276;49.534;6.378;2023-03-13T15:40:13;15.90;99.90
53776;DHT22;44276;49.534;6.378;2023-03-13T15:42:42;15.80;99.90
53776;DHT22;44276;49.534;6.378;2023-03-13T15:45:11;16.00;99.90
53776;DHT22;44276;49.534;6.378;2023-03-13T15:47:39;16.50;99.90
53776;DHT22;44276;49.534;6.378;2023-03-13T15:50:11;17.00;96.50
53776;DHT22;44276;49.534;6.378;2023-03-13T15:52:40;17.10;83.50
53776;DHT22;44276;49.534;6.378;2023-03-13T15:55:11;17.00;85.10
53776;DHT22;44276;49.534;6.378;2023-03-13T15:57:43;16.90;90.80
53776;DHT22;44276;49.534;6.378;2023-03-13T16:00:16;16.70;86.60
53776;DHT22;44276;49.534;6.378;2023-03-13T16:02:46;16.70;92.90
53776;DHT22;44276;49.534;6.378;2023-03-13T16:05:14;16.60;90.70
53776;DHT22;44276;49.534;6.378;2023-03-13T16:07:43;16.50;92.10
53776;DHT22;44276;49.534;6.378;2023-03-13T16:10:17;16.50;90.80
53776;DHT22;44276;49.534;6.378;2023-03-13T16:12:51;16.30;92.10
53776;DHT22;44276;49.534;6.378;2023-03-13T16:15:19;16.10;99.90
53776;DHT22;44276;49.534;6.378;2023-03-13T16:17:47;15.80;99.90
53776;DHT22;44276;49.534;6.378;2023-03-13T16:20:17;15.60;99.90
53776;DHT22;44276;49.534;6.378;2023-03-13T16:22:47;15.50;99.90
53776;DHT22;44276;49.534;6.378;2023-03-13T16:25:21;15.40;99.90
53776;DHT22;44276;49.534;6.378;2023-03-13T16:27:50;15.30;99.90
53776;DHT22;44276;49.534;6.378;2023-03-13T16:30:23;15.10;99.90